THY4VS UGTB-LTFM
Flight info
| Callsign | THY4VS |
|---|---|
| Flight time | N/A |
| Altitude | 36000 |
| Route | ZAGOT DCT BARUS DCT ROLIN UN644 SIN UW90 DEVMU UL852 EVPIM UT304 LUUPU UT310 NUGBA |
| Aircraft | A321/M-SDE3FGHIRWY/LB1 |
Departure
| Time | 2026-04-26 19:50 |
|---|---|
| Airport | Tbilisi International Airport (UGTB) |
Arrival
| Time | N/A |
|---|---|
| Airport | İstanbul Airport (LTFM) |
| Time | Latitude | Longitude | Altitude | Speed | Heading |
|---|---|---|---|---|---|
| 2026-04-26 19:33 | 41.66892 | 44.96330 | 1573 ft | 0 kts | 43° |
| 2026-04-26 19:42 | 41.66890 | 44.96328 | 1573 ft | 1 kts | 44° |
| 2026-04-26 19:42 | 41.66879 | 44.96316 | 1571 ft | 2 kts | 40° |
| 2026-04-26 19:43 | 41.66868 | 44.96302 | 1570 ft | 2 kts | 45° |
| 2026-04-26 19:43 | 41.66857 | 44.96288 | 1569 ft | 2 kts | 42° |
| 2026-04-26 19:43 | 41.66845 | 44.96274 | 1568 ft | 2 kts | 56° |
| 2026-04-26 19:43 | 41.66842 | 44.96254 | 1567 ft | 2 kts | 98° |
| 2026-04-26 19:44 | 41.66846 | 44.96238 | 1566 ft | 0 kts | 130° |
| 2026-04-26 19:44 | 41.66851 | 44.96231 | 1566 ft | 1 kts | 136° |
| 2026-04-26 19:44 | 41.66852 | 44.96229 | 1566 ft | 0 kts | 134° |
| 2026-04-26 19:46 | 41.66851 | 44.96231 | 1566 ft | 0 kts | 134° |
| 2026-04-26 19:47 | 41.66840 | 44.96246 | 1566 ft | 6 kts | 133° |
| 2026-04-26 19:47 | 41.66782 | 44.96328 | 1566 ft | 14 kts | 133° |
| 2026-04-26 19:48 | 41.66712 | 44.96419 | 1564 ft | 14 kts | 152° |
| 2026-04-26 19:48 | 41.66598 | 44.96400 | 1556 ft | 21 kts | 194° |
| 2026-04-26 19:48 | 41.66443 | 44.96348 | 1546 ft | 24 kts | 194° |
| 2026-04-26 19:48 | 41.66269 | 44.96298 | 1535 ft | 26 kts | 184° |
| 2026-04-26 19:49 | 41.66104 | 44.96389 | 1526 ft | 25 kts | 135° |
| 2026-04-26 19:49 | 41.65978 | 44.96552 | 1517 ft | 20 kts | 135° |
| 2026-04-26 19:49 | 41.65882 | 44.96591 | 1507 ft | 19 kts | 207° |
| 2026-04-26 19:49 | 41.65868 | 44.96440 | 1510 ft | 18 kts | 307° |
| 2026-04-26 19:50 | 41.66107 | 44.96135 | 1524 ft | 89 kts | 316° |
| 2026-04-26 19:50 | 41.66761 | 44.95305 | 1560 ft | 163 kts | 316° |
| 2026-04-26 19:50 | 41.67603 | 44.94230 | 2311 ft | 173 kts | 316° |
| 2026-04-26 19:50 | 41.68474 | 44.93111 | 3278 ft | 177 kts | 318° |
| 2026-04-26 19:51 | 41.69384 | 44.92005 | 4036 ft | 180 kts | 319° |
| 2026-04-26 19:51 | 41.70346 | 44.90846 | 4428 ft | 195 kts | 319° |
| 2026-04-26 19:51 | 41.71386 | 44.89578 | 4809 ft | 212 kts | 318° |
| 2026-04-26 19:51 | 41.72536 | 44.88158 | 5169 ft | 233 kts | 317° |